sensor_id;sensor_type;location;lat;lon;timestamp;temperature;humidity
52943;DHT22;38809;53.300;6.614;2022-07-19T00:00:08;18.70;99.90
52943;DHT22;38809;53.300;6.614;2022-07-19T00:02:35;18.50;99.90
52943;DHT22;38809;53.300;6.614;2022-07-19T00:05:02;18.60;99.90
52943;DHT22;38809;53.300;6.614;2022-07-19T00:07:28;18.70;99.90
52943;DHT22;38809;53.300;6.614;2022-07-19T00:09:53;18.70;99.90
52943;DHT22;38809;53.300;6.614;2022-07-19T00:12:19;18.60;99.90
52943;DHT22;38809;53.300;6.614;2022-07-19T00:14:45;18.70;99.90
52943;DHT22;38809;53.300;6.614;2022-07-19T00:17:11;18.60;99.90
52943;DHT22;38809;53.300;6.614;2022-07-19T00:19:36;18.60;99.90
52943;DHT22;38809;53.300;6.614;2022-07-19T00:22:02;18.70;99.90
52943;DHT22;38809;53.300;6.614;2022-07-19T00:24:28;18.70;99.90
52943;DHT22;38809;53.300;6.614;2022-07-19T00:26:54;18.70;99.90
52943;DHT22;38809;53.300;6.614;2022-07-19T00:29:19;18.50;99.90
52943;DHT22;38809;53.300;6.614;2022-07-19T00:31:45;18.60;99.90
52943;DHT22;38809;53.300;6.614;2022-07-19T00:34:11;18.60;99.90
52943;DHT22;38809;53.300;6.614;2022-07-19T00:36:37;18.60;99.90
52943;DHT22;38809;53.300;6.614;2022-07-19T00:39:03;18.70;99.90
52943;DHT22;38809;53.300;6.614;2022-07-19T00:41:29;18.70;99.90
52943;DHT22;38809;53.300;6.614;2022-07-19T00:43:57;18.80;99.90
52943;DHT22;38809;53.300;6.614;2022-07-19T00:46:23;18.70;99.90
52943;DHT22;38809;53.300;6.614;2022-07-19T00:48:49;18.60;99.90
52943;DHT22;38809;53.300;6.614;2022-07-19T00:51:16;18.80;99.90
52943;DHT22;38809;53.300;6.614;2022-07-19T00:53:43;18.60;99.90
52943;DHT22;38809;53.300;6.614;2022-07-19T00:56:11;18.40;99.90
52943;DHT22;38809;53.300;6.614;2022-07-19T00:58:39;18.50;99.90
52943;DHT22;38809;53.300;6.614;2022-07-19T01:01:06;18.50;99.90
52943;DHT22;38809;53.300;6.614;2022-07-19T01:03:35;18.40;99.90
52943;DHT22;38809;53.300;6.614;2022-07-19T01:06:02;18.20;99.90
52943;DHT22;38809;53.300;6.614;2022-07-19T01:08:27;18.20;99.90
52943;DHT22;38809;53.300;6.614;2022-07-19T01:10:53;18.20;99.90
52943;DHT22;38809;53.300;6.614;2022-07-19T01:13:19;18.40;99.90
52943;DHT22;38809;53.300;6.614;2022-07-19T01:15:45;18.20;99.90
52943;DHT22;38809;53.300;6.614;2022-07-19T01:18:11;18.30;99.90
52943;DHT22;38809;53.300;6.614;2022-07-19T01:20:37;18.30;99.90
52943;DHT22;38809;53.300;6.614;2022-07-19T01:23:03;18.40;99.90
52943;DHT22;38809;53.300;6.614;2022-07-19T01:25:32;18.40;99.90
52943;DHT22;38809;53.300;6.614;2022-07-19T01:27:58;18.30;99.90
52943;DHT22;38809;53.300;6.614;2022-07-19T01:30:25;18.20;99.90
52943;DHT22;38809;53.300;6.614;2022-07-19T01:32:51;18.10;99.90
52943;DHT22;38809;53.300;6.614;2022-07-19T01:35:18;18.20;99.90
52943;DHT22;38809;53.300;6.614;2022-07-19T01:37:44;18.10;99.90
52943;DHT22;38809;53.300;6.614;2022-07-19T01:40:11;18.20;99.90
52943;DHT22;38809;53.300;6.614;2022-07-19T01:42:38;18.10;99.90
52943;DHT22;38809;53.300;6.614;2022-07-19T01:45:05;18.20;99.90
52943;DHT22;38809;53.300;6.614;2022-07-19T01:47:32;18.20;99.90
52943;DHT22;38809;53.300;6.614;2022-07-19T01:49:58;18.10;99.90
52943;DHT22;38809;53.300;6.614;2022-07-19T01:52:24;17.90;99.90
52943;DHT22;38809;53.300;6.614;2022-07-19T01:54:49;18.00;99.90
52943;DHT22;38809;53.300;6.614;2022-07-19T01:57:15;18.10;99.90
52943;DHT22;38809;53.300;6.614;2022-07-19T01:59:40;18.20;99.90
52943;DHT22;38809;53.300;6.614;2022-07-19T02:02:06;18.30;99.90
52943;DHT22;38809;53.300;6.614;2022-07-19T02:04:32;18.30;99.90
52943;DHT22;38809;53.300;6.614;2022-07-19T02:06:58;18.00;99.90
52943;DHT22;38809;53.300;6.614;2022-07-19T02:09:24;18.00;99.90
52943;DHT22;38809;53.300;6.614;2022-07-19T02:11:50;18.00;99.90
52943;DHT22;38809;53.300;6.614;2022-07-19T02:14:16;18.00;99.90
52943;DHT22;38809;53.300;6.614;2022-07-19T02:16:42;18.10;99.90
52943;DHT22;38809;53.300;6.614;2022-07-19T02:19:08;18.00;99.90
52943;DHT22;38809;53.300;6.614;2022-07-19T02:21:35;17.70;99.90
52943;DHT22;38809;53.300;6.614;2022-07-19T02:24:01;17.80;99.90
52943;DHT22;38809;53.300;6.614;2022-07-19T02:26:27;17.90;99.90
52943;DHT22;38809;53.300;6.614;2022-07-19T02:28:53;18.10;99.90
52943;DHT22;38809;53.300;6.614;2022-07-19T02:31:19;18.20;99.90
52943;DHT22;38809;53.300;6.614;2022-07-19T02:33:45;18.20;99.90
52943;DHT22;38809;53.300;6.614;2022-07-19T02:36:11;18.10;99.90
52943;DHT22;38809;53.300;6.614;2022-07-19T02:38:37;18.10;99.90
52943;DHT22;38809;53.300;6.614;2022-07-19T02:41:03;18.10;99.90
52943;DHT22;38809;53.300;6.614;2022-07-19T02:43:28;18.10;99.90
52943;DHT22;38809;53.300;6.614;2022-07-19T02:45:54;18.10;99.90
52943;DHT22;38809;53.300;6.614;2022-07-19T02:48:20;17.90;99.90
52943;DHT22;38809;53.300;6.614;2022-07-19T02:50:46;17.70;99.90
52943;DHT22;38809;53.300;6.614;2022-07-19T02:53:12;17.70;99.90
52943;DHT22;38809;53.300;6.614;2022-07-19T02:55:37;17.80;99.90
52943;DHT22;38809;53.300;6.614;2022-07-19T02:58:03;17.60;99.90
52943;DHT22;38809;53.300;6.614;2022-07-19T03:00:29;17.70;99.90
52943;DHT22;38809;53.300;6.614;2022-07-19T03:02:56;17.60;99.90
52943;DHT22;38809;53.300;6.614;2022-07-19T03:05:42;17.60;99.90
52943;DHT22;38809;53.300;6.614;2022-07-19T03:08:08;17.70;99.90
52943;DHT22;38809;53.300;6.614;2022-07-19T03:10:34;17.70;99.90
52943;DHT22;38809;53.300;6.614;2022-07-19T03:12:59;17.70;99.90
52943;DHT22;38809;53.300;6.614;2022-07-19T03:15:25;17.50;99.90
52943;DHT22;38809;53.300;6.614;2022-07-19T03:17:51;17.50;99.90
52943;DHT22;38809;53.300;6.614;2022-07-19T03:20:16;17.40;99.90
52943;DHT22;38809;53.300;6.614;2022-07-19T03:22:42;17.40;99.90
52943;DHT22;38809;53.300;6.614;2022-07-19T03:25:08;17.10;99.90
52943;DHT22;38809;53.300;6.614;2022-07-19T03:27:34;17.10;99.90
52943;DHT22;38809;53.300;6.614;2022-07-19T03:30:00;17.30;99.90
52943;DHT22;38809;53.300;6.614;2022-07-19T03:32:26;17.50;99.90
52943;DHT22;38809;53.300;6.614;2022-07-19T03:34:52;17.40;99.90
52943;DHT22;38809;53.300;6.614;2022-07-19T03:37:18;17.40;99.90
52943;DHT22;38809;53.300;6.614;2022-07-19T03:39:43;17.50;99.90
52943;DHT22;38809;53.300;6.614;2022-07-19T03:42:09;17.50;99.90
52943;DHT22;38809;53.300;6.614;2022-07-19T03:44:35;17.60;99.90
52943;DHT22;38809;53.300;6.614;2022-07-19T03:47:00;17.60;99.90
52943;DHT22;38809;53.300;6.614;2022-07-19T03:49:26;17.70;99.90
52943;DHT22;38809;53.300;6.614;2022-07-19T03:51:52;17.70;99.90
52943;DHT22;38809;53.300;6.614;2022-07-19T03:54:18;17.70;99.90
52943;DHT22;38809;53.300;6.614;2022-07-19T03:56:44;17.60;99.90
52943;DHT22;38809;53.300;6.614;2022-07-19T03:59:09;17.60;99.90
52943;DHT22;38809;53.300;6.614;2022-07-19T04:01:35;17.60;99.90
52943;DHT22;38809;53.300;6.614;2022-07-19T04:04:04;17.70;99.90
52943;DHT22;38809;53.300;6.614;2022-07-19T04:06:30;17.30;99.90
52943;DHT22;38809;53.300;6.614;2022-07-19T04:08:56;17.40;99.90
52943;DHT22;38809;53.300;6.614;2022-07-19T04:11:21;17.60;99.90
52943;DHT22;38809;53.300;6.614;2022-07-19T04:13:47;17.80;99.90
52943;DHT22;38809;53.300;6.614;2022-07-19T04:16:13;17.90;99.90
52943;DHT22;38809;53.300;6.614;2022-07-19T04:18:39;17.90;99.90
52943;DHT22;38809;53.300;6.614;2022-07-19T04:21:05;17.90;99.90
52943;DHT22;38809;53.300;6.614;2022-07-19T04:23:31;18.00;99.90
52943;DHT22;38809;53.300;6.614;2022-07-19T04:25:57;18.00;99.90
52943;DHT22;38809;53.300;6.614;2022-07-19T04:28:22;18.00;99.90
52943;DHT22;38809;53.300;6.614;2022-07-19T04:30:48;18.00;99.90
52943;DHT22;38809;53.300;6.614;2022-07-19T04:33:15;18.20;99.90
52943;DHT22;38809;53.300;6.614;2022-07-19T04:35:41;18.20;99.90
52943;DHT22;38809;53.300;6.614;2022-07-19T04:38:07;18.30;99.90
52943;DHT22;38809;53.300;6.614;2022-07-19T04:40:33;18.30;99.90
52943;DHT22;38809;53.300;6.614;2022-07-19T04:42:58;18.40;99.90
52943;DHT22;38809;53.300;6.614;2022-07-19T04:45:24;18.40;99.90
52943;DHT22;38809;53.300;6.614;2022-07-19T04:47:50;18.50;99.90
52943;DHT22;38809;53.300;6.614;2022-07-19T04:50:16;18.50;99.90
52943;DHT22;38809;53.300;6.614;2022-07-19T04:52:41;18.60;99.90
52943;DHT22;38809;53.300;6.614;2022-07-19T04:55:07;18.60;99.90
52943;DHT22;38809;53.300;6.614;2022-07-19T04:57:33;18.80;99.90
52943;DHT22;38809;53.300;6.614;2022-07-19T04:59:59;19.10;99.90
52943;DHT22;38809;53.300;6.614;2022-07-19T05:02:25;19.10;99.90
52943;DHT22;38809;53.300;6.614;2022-07-19T05:04:50;19.30;99.90
52943;DHT22;38809;53.300;6.614;2022-07-19T05:07:16;19.90;99.90
52943;DHT22;38809;53.300;6.614;2022-07-19T05:09:42;19.70;99.90
52943;DHT22;38809;53.300;6.614;2022-07-19T05:12:09;20.10;99.90
52943;DHT22;38809;53.300;6.614;2022-07-19T05:14:36;20.00;99.90
52943;DHT22;38809;53.300;6.614;2022-07-19T05:17:02;20.00;99.90
52943;DHT22;38809;53.300;6.614;2022-07-19T05:19:28;20.00;99.90
52943;DHT22;38809;53.300;6.614;2022-07-19T05:21:54;20.10;99.90
52943;DHT22;38809;53.300;6.614;2022-07-19T05:24:20;20.40;99.90
52943;DHT22;38809;53.300;6.614;2022-07-19T05:26:45;20.90;99.90
52943;DHT22;38809;53.300;6.614;2022-07-19T05:29:11;21.20;99.90
52943;DHT22;38809;53.300;6.614;2022-07-19T05:31:37;20.70;99.90
52943;DHT22;38809;53.300;6.614;2022-07-19T05:34:03;20.50;99.90
52943;DHT22;38809;53.300;6.614;2022-07-19T05:36:29;20.50;99.90
52943;DHT22;38809;53.300;6.614;2022-07-19T05:38:55;20.60;99.90
52943;DHT22;38809;53.300;6.614;2022-07-19T05:41:21;20.50;99.90
52943;DHT22;38809;53.300;6.614;2022-07-19T05:43:50;20.40;99.90
52943;DHT22;38809;53.300;6.614;2022-07-19T05:46:16;20.30;99.90
52943;DHT22;38809;53.300;6.614;2022-07-19T05:48:42;20.20;99.90
52943;DHT22;38809;53.300;6.614;2022-07-19T05:51:08;20.20;99.90
52943;DHT22;38809;53.300;6.614;2022-07-19T05:53:35;20.20;99.90
52943;DHT22;38809;53.300;6.614;2022-07-19T05:56:01;20.20;99.90
52943;DHT22;38809;53.300;6.614;2022-07-19T05:58:27;20.20;99.90
52943;DHT22;38809;53.300;6.614;2022-07-19T06:00:53;20.20;99.90
52943;DHT22;38809;53.300;6.614;2022-07-19T06:03:37;20.20;99.90
52943;DHT22;38809;53.300;6.614;2022-07-19T06:06:03;20.20;99.90
52943;DHT22;38809;53.300;6.614;2022-07-19T06:08:29;20.20;99.90
52943;DHT22;38809;53.300;6.614;2022-07-19T06:10:55;20.20;99.90
52943;DHT22;38809;53.300;6.614;2022-07-19T06:13:21;20.30;99.90
52943;DHT22;38809;53.300;6.614;2022-07-19T06:15:46;20.40;99.90
52943;DHT22;38809;53.300;6.614;2022-07-19T06:18:12;20.50;99.90
52943;DHT22;38809;53.300;6.614;2022-07-19T06:20:38;20.50;99.90
52943;DHT22;38809;53.300;6.614;2022-07-19T06:23:03;20.60;99.90
52943;DHT22;38809;53.300;6.614;2022-07-19T06:25:29;20.60;99.90
52943;DHT22;38809;53.300;6.614;2022-07-19T06:27:55;20.70;99.90
52943;DHT22;38809;53.300;6.614;2022-07-19T06:30:20;20.70;99.90
52943;DHT22;38809;53.300;6.614;2022-07-19T06:32:46;20.70;99.90
52943;DHT22;38809;53.300;6.614;2022-07-19T06:35:12;20.80;99.90
52943;DHT22;38809;53.300;6.614;2022-07-19T06:37:38;20.80;99.90
52943;DHT22;38809;53.300;6.614;2022-07-19T06:40:04;20.90;99.90
52943;DHT22;38809;53.300;6.614;2022-07-19T06:42:29;21.00;99.90
52943;DHT22;38809;53.300;6.614;2022-07-19T06:44:55;21.00;99.90
52943;DHT22;38809;53.300;6.614;2022-07-19T06:47:21;21.10;99.90
52943;DHT22;38809;53.300;6.614;2022-07-19T06:49:47;21.20;99.90
52943;DHT22;38809;53.300;6.614;2022-07-19T06:52:13;21.30;99.90
52943;DHT22;38809;53.300;6.614;2022-07-19T06:54:38;21.40;99.90
52943;DHT22;38809;53.300;6.614;2022-07-19T06:57:04;21.50;99.90
52943;DHT22;38809;53.300;6.614;2022-07-19T06:59:31;21.70;99.90
52943;DHT22;38809;53.300;6.614;2022-07-19T07:01:57;21.90;99.90
52943;DHT22;38809;53.300;6.614;2022-07-19T07:04:23;22.00;99.90
52943;DHT22;38809;53.300;6.614;2022-07-19T07:06:48;22.40;99.90
52943;DHT22;38809;53.300;6.614;2022-07-19T07:09:14;22.60;99.90
52943;DHT22;38809;53.300;6.614;2022-07-19T07:11:40;23.10;99.90
52943;DHT22;38809;53.300;6.614;2022-07-19T07:14:05;23.30;99.90
52943;DHT22;38809;53.300;6.614;2022-07-19T07:16:31;23.50;99.90
52943;DHT22;38809;53.300;6.614;2022-07-19T07:18:57;23.70;99.90
52943;DHT22;38809;53.300;6.614;2022-07-19T07:21:22;23.90;99.90
52943;DHT22;38809;53.300;6.614;2022-07-19T07:23:48;24.00;99.90
52943;DHT22;38809;53.300;6.614;2022-07-19T07:26:14;24.10;99.90
52943;DHT22;38809;53.300;6.614;2022-07-19T07:28:40;24.30;99.90
52943;DHT22;38809;53.300;6.614;2022-07-19T07:31:05;24.40;99.90
52943;DHT22;38809;53.300;6.614;2022-07-19T07:33:31;24.60;99.90
52943;DHT22;38809;53.300;6.614;2022-07-19T07:35:57;24.70;99.90
52943;DHT22;38809;53.300;6.614;2022-07-19T07:38:22;24.90;99.90
52943;DHT22;38809;53.300;6.614;2022-07-19T07:40:48;25.10;99.90
52943;DHT22;38809;53.300;6.614;2022-07-19T07:43:14;25.10;99.90
52943;DHT22;38809;53.300;6.614;2022-07-19T07:45:40;25.30;99.90
52943;DHT22;38809;53.300;6.614;2022-07-19T07:48:05;25.40;99.90
52943;DHT22;38809;53.300;6.614;2022-07-19T07:50:31;25.60;99.90
52943;DHT22;38809;53.300;6.614;2022-07-19T07:52:57;25.60;99.90
52943;DHT22;38809;53.300;6.614;2022-07-19T07:55:22;25.90;99.90
52943;DHT22;38809;53.300;6.614;2022-07-19T07:57:48;26.00;99.90
52943;DHT22;38809;53.300;6.614;2022-07-19T08:00:14;26.10;99.90
52943;DHT22;38809;53.300;6.614;2022-07-19T08:02:45;26.30;99.90
52943;DHT22;38809;53.300;6.614;2022-07-19T08:05:11;26.40;99.90
52943;DHT22;38809;53.300;6.614;2022-07-19T08:07:37;26.60;99.90
52943;DHT22;38809;53.300;6.614;2022-07-19T08:10:04;26.70;99.90
52943;DHT22;38809;53.300;6.614;2022-07-19T08:12:31;26.80;99.90
52943;DHT22;38809;53.300;6.614;2022-07-19T08:14:56;26.90;99.90
52943;DHT22;38809;53.300;6.614;2022-07-19T08:17:22;27.10;99.90
52943;DHT22;38809;53.300;6.614;2022-07-19T08:19:48;27.10;99.90
52943;DHT22;38809;53.300;6.614;2022-07-19T08:22:17;27.10;99.90
52943;DHT22;38809;53.300;6.614;2022-07-19T08:24:44;27.40;99.90
52943;DHT22;38809;53.300;6.614;2022-07-19T08:27:10;27.50;99.90
52943;DHT22;38809;53.300;6.614;2022-07-19T08:29:36;27.60;99.90
52943;DHT22;38809;53.300;6.614;2022-07-19T08:32:02;27.70;99.90
52943;DHT22;38809;53.300;6.614;2022-07-19T08:34:28;27.90;99.90
52943;DHT22;38809;53.300;6.614;2022-07-19T08:36:53;28.00;99.90
52943;DHT22;38809;53.300;6.614;2022-07-19T08:39:19;28.10;99.90
52943;DHT22;38809;53.300;6.614;2022-07-19T08:41:45;28.20;99.90
52943;DHT22;38809;53.300;6.614;2022-07-19T08:44:12;28.40;99.90
52943;DHT22;38809;53.300;6.614;2022-07-19T08:46:41;28.50;99.90
52943;DHT22;38809;53.300;6.614;2022-07-19T08:49:08;28.50;99.50
52943;DHT22;38809;53.300;6.614;2022-07-19T08:51:34;28.70;99.50
52943;DHT22;38809;53.300;6.614;2022-07-19T08:54:00;28.70;96.80
52943;DHT22;38809;53.300;6.614;2022-07-19T08:56:27;28.80;97.80
52943;DHT22;38809;53.300;6.614;2022-07-19T08:59:11;28.90;97.80
52943;DHT22;38809;53.300;6.614;2022-07-19T09:01:38;29.10;98.70
52943;DHT22;38809;53.300;6.614;2022-07-19T09:04:16;29.20;95.90
52943;DHT22;38809;53.300;6.614;2022-07-19T09:06:53;29.20;99.90
52943;DHT22;38809;53.300;6.614;2022-07-19T09:09:21;29.40;96.90
52943;DHT22;38809;53.300;6.614;2022-07-19T09:11:49;29.60;95.20
52943;DHT22;38809;53.300;6.614;2022-07-19T09:19:23;29.80;95.20
52943;DHT22;38809;53.300;6.614;2022-07-19T09:22:15;29.90;93.40
52943;DHT22;38809;53.300;6.614;2022-07-19T09:24:46;30.10;94.30
52943;DHT22;38809;53.300;6.614;2022-07-19T09:27:17;30.10;90.30
52943;DHT22;38809;53.300;6.614;2022-07-19T09:29:45;30.20;90.20
52943;DHT22;38809;53.300;6.614;2022-07-19T09:32:16;30.30;91.00
52943;DHT22;38809;53.300;6.614;2022-07-19T09:37:19;30.60;91.20
52943;DHT22;38809;53.300;6.614;2022-07-19T09:39:48;30.70;90.70
52943;DHT22;38809;53.300;6.614;2022-07-19T09:42:23;30.80;90.60
52943;DHT22;38809;53.300;6.614;2022-07-19T09:44:59;31.00;91.90
52943;DHT22;38809;53.300;6.614;2022-07-19T09:47:33;31.00;88.90
52943;DHT22;38809;53.300;6.614;2022-07-19T09:50:00;31.10;90.90
52943;DHT22;38809;53.300;6.614;2022-07-19T09:52:26;31.10;88.90
52943;DHT22;38809;53.300;6.614;2022-07-19T09:54:52;31.20;83.80
52943;DHT22;38809;53.300;6.614;2022-07-19T09:57:23;31.30;85.10
52943;DHT22;38809;53.300;6.614;2022-07-19T09:59:51;31.40;87.30
52943;DHT22;38809;53.300;6.614;2022-07-19T10:02:22;31.50;88.10
52943;DHT22;38809;53.300;6.614;2022-07-19T10:04:49;31.50;87.20
52943;DHT22;38809;53.300;6.614;2022-07-19T10:07:19;31.70;86.30
52943;DHT22;38809;53.300;6.614;2022-07-19T10:09:45;31.80;85.50
52943;DHT22;38809;53.300;6.614;2022-07-19T10:12:12;31.80;89.30
52943;DHT22;38809;53.300;6.614;2022-07-19T10:14:38;31.90;87.70
52943;DHT22;38809;53.300;6.614;2022-07-19T10:17:08;32.00;87.90
52943;DHT22;38809;53.300;6.614;2022-07-19T10:22:09;32.10;82.90
52943;DHT22;38809;53.300;6.614;2022-07-19T10:24:54;32.10;84.10
52943;DHT22;38809;53.300;6.614;2022-07-19T10:29:49;32.20;85.10
52943;DHT22;38809;53.300;6.614;2022-07-19T10:32:15;32.20;88.70
52943;DHT22;38809;53.300;6.614;2022-07-19T10:34:43;32.30;81.30
52943;DHT22;38809;53.300;6.614;2022-07-19T10:37:12;32.30;81.10
52943;DHT22;38809;53.300;6.614;2022-07-19T10:39:39;32.40;82.40
52943;DHT22;38809;53.300;6.614;2022-07-19T10:42:18;32.60;82.50
52943;DHT22;38809;53.300;6.614;2022-07-19T10:49:48;32.70;80.70
52943;DHT22;38809;53.300;6.614;2022-07-19T10:57:51;32.90;78.10
52943;DHT22;38809;53.300;6.614;2022-07-19T11:00:21;33.00;75.30
52943;DHT22;38809;53.300;6.614;2022-07-19T11:02:49;33.00;75.50
52943;DHT22;38809;53.300;6.614;2022-07-19T11:05:26;32.90;72.90
52943;DHT22;38809;53.300;6.614;2022-07-19T11:07:54;32.90;79.60
52943;DHT22;38809;53.300;6.614;2022-07-19T11:10:28;32.90;80.20
52943;DHT22;38809;53.300;6.614;2022-07-19T11:12:55;33.00;77.80
52943;DHT22;38809;53.300;6.614;2022-07-19T11:15:21;32.90;74.30
52943;DHT22;38809;53.300;6.614;2022-07-19T11:18:00;33.00;74.30
52943;DHT22;38809;53.300;6.614;2022-07-19T11:20:28;33.20;69.30
52943;DHT22;38809;53.300;6.614;2022-07-19T11:22:55;33.30;71.20
52943;DHT22;38809;53.300;6.614;2022-07-19T11:25:30;33.40;73.90
52943;DHT22;38809;53.300;6.614;2022-07-19T11:27:58;33.40;75.70
52943;DHT22;38809;53.300;6.614;2022-07-19T11:30:27;33.30;72.60
52943;DHT22;38809;53.300;6.614;2022-07-19T11:32:55;33.30;71.70
52943;DHT22;38809;53.300;6.614;2022-07-19T11:35:21;33.40;68.20
52943;DHT22;38809;53.300;6.614;2022-07-19T11:37:47;33.50;72.90
52943;DHT22;38809;53.300;6.614;2022-07-19T11:40:13;33.50;73.60
52943;DHT22;38809;53.300;6.614;2022-07-19T11:42:45;33.40;74.00
52943;DHT22;38809;53.300;6.614;2022-07-19T11:47:49;33.40;73.70
52943;DHT22;38809;53.300;6.614;2022-07-19T11:50:20;33.50;69.30
52943;DHT22;38809;53.300;6.614;2022-07-19T11:52:55;33.60;72.30
52943;DHT22;38809;53.300;6.614;2022-07-19T11:55:26;33.40;71.70
52943;DHT22;38809;53.300;6.614;2022-07-19T11:57:53;33.40;74.10
52943;DHT22;38809;53.300;6.614;2022-07-19T12:00:20;33.70;69.70
52943;DHT22;38809;53.300;6.614;2022-07-19T12:05:16;33.90;70.20
52943;DHT22;38809;53.300;6.614;2022-07-19T12:07:48;33.90;69.70
52943;DHT22;38809;53.300;6.614;2022-07-19T12:10:37;33.80;72.20
52943;DHT22;38809;53.300;6.614;2022-07-19T12:13:05;33.80;72.30
52943;DHT22;38809;53.300;6.614;2022-07-19T12:18:09;33.80;67.40
52943;DHT22;38809;53.300;6.614;2022-07-19T12:20:35;33.80;70.70
52943;DHT22;38809;53.300;6.614;2022-07-19T12:23:17;34.00;68.00
52943;DHT22;38809;53.300;6.614;2022-07-19T12:25:49;33.80;73.40
52943;DHT22;38809;53.300;6.614;2022-07-19T12:28:14;33.60;70.40
52943;DHT22;38809;53.300;6.614;2022-07-19T12:30:40;33.80;69.70
52943;DHT22;38809;53.300;6.614;2022-07-19T12:33:11;34.00;67.70
52943;DHT22;38809;53.300;6.614;2022-07-19T12:35:45;34.00;66.60
52943;DHT22;38809;53.300;6.614;2022-07-19T12:38:11;34.00;69.20
52943;DHT22;38809;53.300;6.614;2022-07-19T12:40:42;34.00;69.30
52943;DHT22;38809;53.300;6.614;2022-07-19T12:43:10;33.90;67.50
52943;DHT22;38809;53.300;6.614;2022-07-19T12:45:40;34.00;65.10
52943;DHT22;38809;53.300;6.614;2022-07-19T12:48:07;33.90;67.00
52943;DHT22;38809;53.300;6.614;2022-07-19T12:50:35;33.90;66.70
52943;DHT22;38809;53.300;6.614;2022-07-19T12:53:04;34.00;64.50
52943;DHT22;38809;53.300;6.614;2022-07-19T12:55:31;33.90;67.80
52943;DHT22;38809;53.300;6.614;2022-07-19T12:57:58;33.90;68.80
52943;DHT22;38809;53.300;6.614;2022-07-19T13:00:26;34.00;65.40
52943;DHT22;38809;53.300;6.614;2022-07-19T13:02:53;34.00;66.90
52943;DHT22;38809;53.300;6.614;2022-07-19T13:05:21;34.00;66.40
52943;DHT22;38809;53.300;6.614;2022-07-19T13:07:47;33.90;70.00
52943;DHT22;38809;53.300;6.614;2022-07-19T13:10:14;33.90;66.10
52943;DHT22;38809;53.300;6.614;2022-07-19T13:12:40;33.90;67.70
52943;DHT22;38809;53.300;6.614;2022-07-19T13:15:07;33.90;68.70
52943;DHT22;38809;53.300;6.614;2022-07-19T13:17:33;33.80;68.20
52943;DHT22;38809;53.300;6.614;2022-07-19T13:19:59;33.90;66.90
52943;DHT22;38809;53.300;6.614;2022-07-19T13:22:24;34.00;68.00
52943;DHT22;38809;53.300;6.614;2022-07-19T13:24:50;34.00;67.00
52943;DHT22;38809;53.300;6.614;2022-07-19T13:27:16;34.00;66.10
52943;DHT22;38809;53.300;6.614;2022-07-19T13:29:43;33.90;68.20
52943;DHT22;38809;53.300;6.614;2022-07-19T13:32:09;33.90;70.20
52943;DHT22;38809;53.300;6.614;2022-07-19T13:34:37;34.00;67.50
52943;DHT22;38809;53.300;6.614;2022-07-19T13:37:03;33.90;68.90
52943;DHT22;38809;53.300;6.614;2022-07-19T13:39:29;34.00;68.00
52943;DHT22;38809;53.300;6.614;2022-07-19T13:41:56;33.60;70.20
52943;DHT22;38809;53.300;6.614;2022-07-19T13:44:22;33.80;71.60
52943;DHT22;38809;53.300;6.614;2022-07-19T13:46:48;33.90;67.40
52943;DHT22;38809;53.300;6.614;2022-07-19T13:49:14;33.90;68.90
52943;DHT22;38809;53.300;6.614;2022-07-19T13:51:40;33.90;67.80
52943;DHT22;38809;53.300;6.614;2022-07-19T13:54:06;33.70;69.70
52943;DHT22;38809;53.300;6.614;2022-07-19T13:56:31;33.70;69.90
52943;DHT22;38809;53.300;6.614;2022-07-19T13:58:57;33.80;67.80
52943;DHT22;38809;53.300;6.614;2022-07-19T14:01:24;33.80;67.70
52943;DHT22;38809;53.300;6.614;2022-07-19T14:03:50;33.80;70.10
52943;DHT22;38809;53.300;6.614;2022-07-19T14:06:16;33.60;71.30
52943;DHT22;38809;53.300;6.614;2022-07-19T14:08:42;33.60;71.90
52943;DHT22;38809;53.300;6.614;2022-07-19T14:11:08;33.80;69.50
52943;DHT22;38809;53.300;6.614;2022-07-19T14:13:34;33.70;67.00
52943;DHT22;38809;53.300;6.614;2022-07-19T14:16:03;33.70;67.90
52943;DHT22;38809;53.300;6.614;2022-07-19T14:18:29;33.60;71.10
52943;DHT22;38809;53.300;6.614;2022-07-19T14:20:55;33.30;70.80
52943;DHT22;38809;53.300;6.614;2022-07-19T14:23:21;33.20;70.10
52943;DHT22;38809;53.300;6.614;2022-07-19T14:25:48;33.00;68.50
52943;DHT22;38809;53.300;6.614;2022-07-19T14:28:14;33.00;69.20
52943;DHT22;38809;53.300;6.614;2022-07-19T14:30:42;33.00;70.40
52943;DHT22;38809;53.300;6.614;2022-07-19T14:33:08;32.90;68.40
52943;DHT22;38809;53.300;6.614;2022-07-19T14:35:34;33.00;69.10
52943;DHT22;38809;53.300;6.614;2022-07-19T14:38:00;33.10;67.20
52943;DHT22;38809;53.300;6.614;2022-07-19T14:40:25;33.00;67.20
52943;DHT22;38809;53.300;6.614;2022-07-19T14:42:51;33.00;72.80
52943;DHT22;38809;53.300;6.614;2022-07-19T14:45:17;33.00;71.70
52943;DHT22;38809;53.300;6.614;2022-07-19T14:47:43;33.00;71.00
52943;DHT22;38809;53.300;6.614;2022-07-19T14:50:09;32.90;70.10
52943;DHT22;38809;53.300;6.614;2022-07-19T14:52:35;32.90;73.10
52943;DHT22;38809;53.300;6.614;2022-07-19T14:55:02;32.90;72.50
52943;DHT22;38809;53.300;6.614;2022-07-19T14:57:28;32.80;69.70
52943;DHT22;38809;53.300;6.614;2022-07-19T14:59:54;32.80;70.70
52943;DHT22;38809;53.300;6.614;2022-07-19T15:02:20;32.80;70.10
52943;DHT22;38809;53.300;6.614;2022-07-19T15:04:46;32.80;72.80
52943;DHT22;38809;53.300;6.614;2022-07-19T15:07:12;32.80;70.50
52943;DHT22;38809;53.300;6.614;2022-07-19T15:09:37;32.70;73.00
52943;DHT22;38809;53.300;6.614;2022-07-19T15:12:03;32.80;73.10
52943;DHT22;38809;53.300;6.614;2022-07-19T15:14:30;32.80;73.50
52943;DHT22;38809;53.300;6.614;2022-07-19T15:17:01;32.80;72.70
52943;DHT22;38809;53.300;6.614;2022-07-19T15:19:27;32.70;73.50
52943;DHT22;38809;53.300;6.614;2022-07-19T15:21:53;32.80;71.80
52943;DHT22;38809;53.300;6.614;2022-07-19T15:24:19;32.80;74.00
52943;DHT22;38809;53.300;6.614;2022-07-19T15:26:46;32.70;72.30
52943;DHT22;38809;53.300;6.614;2022-07-19T15:29:12;32.60;73.00
52943;DHT22;38809;53.300;6.614;2022-07-19T15:31:38;32.50;74.00
52943;DHT22;38809;53.300;6.614;2022-07-19T15:34:04;32.50;75.00
52943;DHT22;38809;53.300;6.614;2022-07-19T15:36:31;32.50;75.30
52943;DHT22;38809;53.300;6.614;2022-07-19T15:38:57;32.50;75.20
52943;DHT22;38809;53.300;6.614;2022-07-19T15:41:23;32.50;75.10
52943;DHT22;38809;53.300;6.614;2022-07-19T15:43:49;32.40;77.80
52943;DHT22;38809;53.300;6.614;2022-07-19T15:46:15;32.50;77.20
52943;DHT22;38809;53.300;6.614;2022-07-19T15:48:41;32.30;78.00
52943;DHT22;38809;53.300;6.614;2022-07-19T15:51:08;32.30;76.80
52943;DHT22;38809;53.300;6.614;2022-07-19T15:53:35;32.30;77.30
52943;DHT22;38809;53.300;6.614;2022-07-19T15:56:01;32.30;79.10
52943;DHT22;38809;53.300;6.614;2022-07-19T15:58:27;32.30;80.10